Time;durP1;ratioP1;P1;durP2;ratioP2;P2;SDS_P1;SDS_P2;PMS_P1;PMS_P2;Temp;Humidity;BMP_temperature;BMP_pressure;BME280_temperature;BME280_humidity;BME280_pressure;Samples;Min_cycle;Max_cycle;Signal;HPM_P1;HPM_P2
2024/01/16 00:00:27;;;;;;;5.37;5.07;;;;;;;9.90;100.00;148531.47;5091711;28;20184;-57
2024/01/16 00:02:54;;;;;;;5.90;5.60;;;;;;;9.92;100.00;148535.28;5091825;28;20226;-57
2024/01/16 00:05:21;;;;;;;5.60;5.30;;;;;;;9.99;100.00;148554.22;5091613;28;20190;-58
2024/01/16 00:07:48;;;;;;;5.57;5.17;;;;;;;9.98;100.00;148551.69;5091838;28;20605;-58
2024/01/16 00:10:15;;;;;;;5.50;5.10;;;;;;;9.99;100.00;148554.22;5091777;28;20184;-58
2024/01/16 00:12:43;;;;;;;5.93;5.63;;;;;;;9.95;100.00;148544.13;5091591;28;20269;-58
2024/01/16 00:15:10;;;;;;;7.37;5.60;;;;;;;9.96;100.00;148545.38;5091774;28;20563;-58
2024/01/16 00:17:39;;;;;;;5.90;5.40;;;;;;;9.93;100.00;148537.81;5091516;28;20184;-58
2024/01/16 00:20:07;;;;;;;5.47;5.07;;;;;;;10.16;100.00;148594.69;5091789;28;20188;-58
2024/01/16 00:22:34;;;;;;;6.50;5.90;;;;;;;10.24;100.00;148616.19;5091531;28;20275;-59
2024/01/16 00:25:01;;;;;;;6.63;6.03;;;;;;;10.30;100.00;148630.09;5091553;28;20200;-58
2024/01/16 00:27:28;;;;;;;5.93;5.60;;;;;;;10.38;100.00;148651.56;5092041;28;20623;-58
2024/01/16 00:29:55;;;;;;;6.10;5.60;;;;;;;10.43;100.00;148664.22;5091487;28;20188;-58
2024/01/16 00:32:22;;;;;;;5.90;5.50;;;;;;;10.32;100.00;148635.13;5091378;28;20188;-58
2024/01/16 00:34:50;;;;;;;6.97;6.47;;;;;;;10.37;100.00;148649.03;5091657;28;20207;-58
2024/01/16 00:37:18;;;;;;;6.23;5.67;;;;;;;10.34;100.00;148641.47;5091341;28;20184;-58
2024/01/16 00:39:45;;;;;;;6.27;5.77;;;;;;;10.08;100.00;148576.97;5091292;28;20241;-59
2024/01/16 00:42:12;;;;;;;6.43;6.13;;;;;;;10.26;100.00;148621.25;5091345;28;20190;-58
2024/01/16 00:44:39;;;;;;;6.93;6.53;;;;;;;10.19;100.00;148603.53;5091590;28;20254;-58
2024/01/16 00:47:06;;;;;;;6.43;6.03;;;;;;;10.12;100.00;148584.53;5091454;28;20238;-58
2024/01/16 00:49:33;;;;;;;5.60;5.20;;;;;;;10.05;100.00;148568.13;5091452;28;20242;-59
2024/01/16 00:52:01;;;;;;;6.57;5.97;;;;;;;9.81;100.00;148507.47;5091576;28;20242;-58
2024/01/16 00:54:28;;;;;;;6.07;5.80;;;;;;;9.62;100.00;148460.75;5091191;28;20236;-58
2024/01/16 00:56:59;;;;;;;6.20;5.90;;;;;;;9.56;100.00;148446.84;5091025;28;20200;-58
2024/01/16 00:59:26;;;;;;;6.13;5.83;;;;;;;9.56;100.00;148445.56;5091086;28;20192;-59
2024/01/16 01:01:53;;;;;;;6.00;5.50;;;;;;;9.52;100.00;148436.72;5091392;28;20716;-58
2024/01/16 01:04:20;;;;;;;6.33;6.03;;;;;;;9.46;100.00;148421.56;5091130;28;20241;-57
2024/01/16 01:06:47;;;;;;;5.73;5.23;;;;;;;9.44;100.00;148416.53;5092115;28;20180;-58
2024/01/16 01:09:16;;;;;;;6.33;5.83;;;;;;;9.42;100.00;148410.25;5094748;28;20187;-57
2024/01/16 01:11:43;;;;;;;6.07;5.53;;;;;;;9.34;100.00;148391.25;5094899;28;20184;-57
2024/01/16 01:14:10;;;;;;;6.83;6.53;;;;;;;9.35;100.00;148393.81;5094857;28;20184;-58
2024/01/16 01:16:37;;;;;;;7.30;6.83;;;;;;;9.34;100.00;148391.25;5094467;28;20211;-59
2024/01/16 01:19:04;;;;;;;6.97;6.50;;;;;;;9.13;100.00;148338.22;5094771;28;20677;-57
2024/01/16 01:21:31;;;;;;;6.97;6.27;;;;;;;8.89;100.00;148277.66;5094807;28;20184;-57
2024/01/16 01:23:58;;;;;;;6.77;6.27;;;;;;;8.84;100.00;148265.00;5094491;28;20250;-58
2024/01/16 01:26:27;;;;;;;6.93;6.53;;;;;;;8.84;100.00;148265.00;5094552;28;20202;-57
2024/01/16 01:28:54;;;;;;;6.63;6.33;;;;;;;8.83;100.00;148262.47;5094254;28;20184;-58
2024/01/16 01:31:21;;;;;;;6.73;6.37;;;;;;;8.77;100.00;148248.63;5094130;28;20185;-59
2024/01/16 01:33:48;;;;;;;7.00;6.50;;;;;;;8.73;100.00;148237.25;5094268;28;20226;-58
2024/01/16 01:36:15;;;;;;;6.80;6.30;;;;;;;8.52;100.00;148186.78;5094090;28;20303;-57
2024/01/16 01:38:42;;;;;;;6.00;5.70;;;;;;;8.45;100.00;148169.09;5094095;28;20227;-58
2024/01/16 01:41:11;;;;;;;6.30;5.90;;;;;;;8.49;100.00;148179.19;5093985;28;20234;-57
2024/01/16 01:43:40;;;;;;;6.20;5.90;;;;;;;8.45;100.00;148169.09;5094274;28;20596;-58
2024/01/16 01:46:11;;;;;;;6.17;5.83;;;;;;;8.54;100.00;148190.56;5093795;28;20180;-58
2024/01/16 01:48:39;;;;;;;6.63;6.23;;;;;;;8.39;100.00;148153.97;5094174;28;20188;-57
2024/01/16 01:51:06;;;;;;;6.67;6.17;;;;;;;8.53;100.00;148188.06;5094176;28;20241;-58
2024/01/16 01:53:34;;;;;;;6.93;6.53;;;;;;;8.56;100.00;148195.63;5093824;28;20180;-57
2024/01/16 01:56:06;;;;;;;7.07;6.67;;;;;;;8.51;100.00;148183.00;5093613;28;20227;-58
2024/01/16 01:58:34;;;;;;;8.00;7.40;;;;;;;8.38;100.00;148150.19;5093712;28;20184;-57
2024/01/16 02:01:05;;;;;;;6.53;6.23;;;;;;;8.41;100.00;148159.00;5094046;28;20638;-57
2024/01/16 02:03:36;;;;;;;6.83;6.43;;;;;;;8.52;100.00;148186.78;5093614;28;20188;-58
2024/01/16 02:06:03;;;;;;;6.93;6.50;;;;;;;8.61;100.00;148208.25;5093896;28;20184;-56
2024/01/16 02:08:31;;;;;;;6.47;5.97;;;;;;;8.55;100.00;148194.34;5093897;28;20188;-57
2024/01/16 02:10:58;;;;;;;6.83;6.43;;;;;;;8.56;100.00;148195.63;5093450;28;20180;-58
2024/01/16 02:13:25;;;;;;;7.07;6.67;;;;;;;8.64;100.00;148217.06;5093739;28;20185;-57
2024/01/16 02:15:52;;;;;;;6.50;6.10;;;;;;;8.55;100.00;148194.34;5093355;28;20215;-57
2024/01/16 02:18:21;;;;;;;6.63;6.13;;;;;;;8.59;100.00;148204.44;5093517;28;20189;-59
2024/01/16 02:20:48;;;;;;;6.97;6.50;;;;;;;8.61;100.00;148209.47;5093351;28;20253;-58
2024/01/16 02:23:16;;;;;;;7.90;6.73;;;;;;;8.34;100.00;148141.34;5093497;28;20184;-58
2024/01/16 02:25:45;;;;;;;6.83;6.53;;;;;;;8.53;100.00;148189.28;5093276;28;20658;-58
2024/01/16 02:28:12;;;;;;;6.30;6.00;;;;;;;8.49;100.00;148179.19;5093455;28;20188;-57
2024/01/16 02:30:41;;;;;;;7.20;6.70;;;;;;;8.23;100.00;148114.78;5093405;28;20630;-58
2024/01/16 02:33:08;;;;;;;6.93;6.33;;;;;;;8.48;100.00;148176.69;5093066;28;20191;-57
2024/01/16 02:35:35;;;;;;;7.00;6.67;;;;;;;8.45;100.00;148167.84;5092908;28;20203;-57
2024/01/16 02:38:02;;;;;;;7.20;6.80;;;;;;;8.41;100.00;148159.00;5093252;28;20615;-58
2024/01/16 02:40:29;;;;;;;7.23;6.67;;;;;;;8.39;100.00;148152.72;5092799;28;20202;-57
2024/01/16 02:42:57;;;;;;;7.00;6.70;;;;;;;8.24;100.00;148116.06;5092875;28;20246;-58
2024/01/16 02:45:24;;;;;;;7.17;6.70;;;;;;;8.08;100.00;148075.69;5092772;28;20237;-58
2024/01/16 02:47:52;;;;;;;7.47;7.07;;;;;;;8.15;100.00;148094.59;5092881;28;20184;-57
2024/01/16 02:50:20;;;;;;;7.80;7.20;;;;;;;8.06;100.00;148070.69;5092764;28;20180;-57
2024/01/16 02:52:47;;;;;;;8.90;8.40;;;;;;;7.68;100.00;147977.31;5092604;28;20253;-59
2024/01/16 02:55:14;;;;;;;7.90;7.37;;;;;;;7.92;100.00;148035.34;5092405;28;20232;-58
2024/01/16 02:57:41;;;;;;;8.87;8.17;;;;;;;8.00;100.00;148056.78;5092311;28;20188;-59
2024/01/16 03:00:11;;;;;;;8.40;7.80;;;;;;;8.15;100.00;148093.34;5092477;28;20253;-58
2024/01/16 03:02:38;;;;;;;8.00;7.43;;;;;;;8.13;100.00;148088.31;5092465;28;20188;-58
2024/01/16 03:05:06;;;;;;;7.33;6.90;;;;;;;8.23;100.00;148113.56;5092419;28;20242;-58
2024/01/16 03:07:34;;;;;;;8.27;7.67;;;;;;;8.23;100.00;148113.56;5092389;28;20191;-58
2024/01/16 03:10:01;;;;;;;8.60;8.00;;;;;;;8.39;100.00;148152.72;5092637;28;20210;-59
2024/01/16 03:12:28;;;;;;;6.90;6.60;;;;;;;8.54;100.00;148191.81;5092283;28;20245;-58
2024/01/16 03:14:55;;;;;;;9.37;8.70;;;;;;;8.58;100.00;148201.91;5092255;28;20188;-58
2024/01/16 03:17:24;;;;;;;8.23;7.77;;;;;;;8.49;100.00;148179.19;5092422;28;20600;-58
2024/01/16 03:19:51;;;;;;;9.30;8.80;;;;;;;8.27;100.00;148124.88;5092474;28;20669;-57
2024/01/16 03:22:18;;;;;;;9.23;8.73;;;;;;;8.26;100.00;148121.13;5092136;28;20288;-57
2024/01/16 03:24:45;;;;;;;8.50;8.10;;;;;;;8.01;100.00;148059.31;5092499;28;20621;-58
2024/01/16 03:27:13;;;;;;;9.17;8.60;;;;;;;8.12;100.00;148085.78;5092547;28;20195;-58
2024/01/16 03:29:40;;;;;;;10.43;9.30;;;;;;;8.00;100.00;148055.50;5091616;28;20230;-57
2024/01/16 03:32:07;;;;;;;9.07;8.57;;;;;;;7.92;100.00;148035.34;5092287;28;20184;-57
2024/01/16 03:34:36;;;;;;;8.67;8.03;;;;;;;7.71;100.00;147984.91;5092129;28;20229;-59
2024/01/16 03:37:03;;;;;;;9.43;8.40;;;;;;;7.84;100.00;148016.44;5092079;28;20574;-57
2024/01/16 03:39:30;;;;;;;8.70;7.97;;;;;;;7.92;100.00;148035.34;5092136;28;20626;-59
2024/01/16 03:41:57;;;;;;;7.40;6.90;;;;;;;7.97;100.00;148047.97;5091799;28;20219;-57
2024/01/16 03:44:24;;;;;;;8.43;7.93;;;;;;;8.06;100.00;148070.69;5092031;28;20631;-58
2024/01/16 03:46:51;;;;;;;8.27;7.47;;;;;;;8.15;100.00;148093.34;5091758;28;20206;-58
2024/01/16 03:49:18;;;;;;;7.93;7.43;;;;;;;8.23;100.00;148113.56;5091769;28;20257;-58
2024/01/16 03:51:47;;;;;;;9.30;7.60;;;;;;;8.34;100.00;148141.34;5092022;28;20180;-59
2024/01/16 03:54:14;;;;;;;9.50;8.77;;;;;;;8.40;100.00;148155.25;5091791;28;20694;-59
2024/01/16 03:56:41;;;;;;;10.07;9.37;;;;;;;8.23;100.00;148114.78;5091892;28;20277;-57
2024/01/16 03:59:08;;;;;;;8.17;7.67;;;;;;;8.22;100.00;148111.03;5091904;28;20183;-58
2024/01/16 04:01:36;;;;;;;9.87;9.17;;;;;;;8.10;100.00;148080.75;5092021;28;20233;-57
2024/01/16 04:04:06;;;;;;;9.93;9.03;;;;;;;8.13;100.00;148088.31;5091881;28;20184;-58
2024/01/16 04:06:33;;;;;;;9.13;8.57;;;;;;;8.07;100.00;148073.16;5091576;28;20183;-57
2024/01/16 04:09:02;;;;;;;10.07;9.27;;;;;;;8.02;100.00;148061.81;5091816;28;20184;-59
2024/01/16 04:11:29;;;;;;;9.03;8.43;;;;;;;8.06;100.00;148070.69;5091871;28;20562;-57
2024/01/16 04:13:56;;;;;;;8.10;7.60;;;;;;;8.12;100.00;148085.78;5091523;28;20188;-59
2024/01/16 04:16:24;;;;;;;9.40;8.80;;;;;;;8.11;100.00;148083.25;5091769;28;20208;-58
2024/01/16 04:18:51;;;;;;;10.63;9.60;;;;;;;8.09;100.00;148078.22;5091583;28;20180;-59
2024/01/16 04:21:18;;;;;;;9.57;8.87;;;;;;;8.12;100.00;148085.78;5091606;28;20180;-58
2024/01/16 04:23:45;;;;;;;11.47;10.47;;;;;;;7.96;100.00;148045.44;5091507;28;20191;-58
2024/01/16 04:26:14;;;;;;;9.03;8.40;;;;;;;8.14;100.00;148090.84;5091901;28;20719;-58
2024/01/16 04:28:42;;;;;;;13.43;10.57;;;;;;;8.14;100.00;148090.84;5091505;28;20242;-58
2024/01/16 04:31:11;;;;;;;11.63;10.53;;;;;;;8.17;100.00;148099.69;5091348;28;20200;-57
2024/01/16 04:33:38;;;;;;;13.17;11.60;;;;;;;8.22;100.00;148112.31;5091407;28;20256;-57
2024/01/16 04:36:06;;;;;;;13.80;12.57;;;;;;;7.92;100.00;148035.34;5091335;28;20240;-58
2024/01/16 04:38:33;;;;;;;13.23;11.83;;;;;;;8.25;100.00;148119.84;5091259;28;20188;-57
2024/01/16 04:41:02;;;;;;;16.50;11.80;;;;;;;8.21;100.00;148108.50;5091579;28;20707;-58
2024/01/16 04:43:31;;;;;;;13.70;12.23;;;;;;;8.20;100.00;148107.22;5095436;28;20234;-58
2024/01/16 04:45:58;;;;;;;12.27;11.23;;;;;;;8.52;100.00;148186.78;5095320;28;20631;-58
2024/01/16 04:48:25;;;;;;;17.00;11.03;;;;;;;8.63;100.00;148213.28;5095004;28;20213;-58
2024/01/16 04:50:52;;;;;;;10.33;9.53;;;;;;;8.55;100.00;148193.09;5095237;28;20654;-58
2024/01/16 04:53:19;;;;;;;10.70;9.63;;;;;;;8.79;100.00;148252.38;5095239;28;20273;-58
2024/01/16 04:55:46;;;;;;;11.93;10.57;;;;;;;8.85;100.00;148268.81;5094717;28;20238;-57
2024/01/16 04:58:13;;;;;;;11.90;10.90;;;;;;;8.90;100.00;148281.44;5095066;28;20588;-58
2024/01/16 05:00:42;;;;;;;11.53;10.37;;;;;;;8.87;100.00;148272.63;5094744;28;20180;-59
2024/01/16 05:03:09;;;;;;;9.93;9.20;;;;;;;8.85;100.00;148268.81;5094742;28;20185;-58
2024/01/16 05:05:36;;;;;;;8.67;8.07;;;;;;;8.86;100.00;148270.09;5094699;28;20183;-57
2024/01/16 05:08:03;;;;;;;8.97;8.47;;;;;;;8.88;100.00;148275.09;5094578;28;20180;-58
2024/01/16 05:10:30;;;;;;;9.20;8.47;;;;;;;8.78;100.00;148251.16;5094855;28;20564;-58
2024/01/16 05:12:57;;;;;;;10.50;9.70;;;;;;;8.58;100.00;148200.66;5094496;28;20268;-57
2024/01/16 05:15:24;;;;;;;9.30;8.80;;;;;;;8.37;100.00;148148.91;5094341;28;20188;-58
2024/01/16 05:17:53;;;;;;;9.10;8.40;;;;;;;8.24;100.00;148117.31;5094601;28;20675;-58
2024/01/16 05:20:21;;;;;;;8.23;7.73;;;;;;;8.13;100.00;148088.31;5094277;28;20268;-57
2024/01/16 05:22:48;;;;;;;7.57;7.07;;;;;;;8.26;100.00;148121.13;5094340;28;20184;-57
2024/01/16 05:25:17;;;;;;;6.73;6.43;;;;;;;8.16;100.00;148095.88;5094432;28;20692;-57
2024/01/16 05:27:44;;;;;;;5.23;5.03;;;;;;;8.22;100.00;148112.31;5094414;28;20180;-58
2024/01/16 05:30:12;;;;;;;4.53;4.33;;;;;;;8.18;100.00;148100.94;5094054;28;20196;-58
2024/01/16 05:32:41;;;;;;;4.40;4.20;;;;;;;8.24;100.00;148117.31;5094026;28;20199;-58
2024/01/16 05:35:10;;;;;;;4.27;4.07;;;;;;;8.25;100.00;148119.84;5094110;28;20190;-58
2024/01/16 05:37:37;;;;;;;4.40;4.20;;;;;;;8.31;100.00;148133.81;5093910;28;20214;-57
2024/01/16 05:40:07;;;;;;;3.60;3.40;;;;;;;8.42;100.00;148161.53;5094246;28;20188;-58
2024/01/16 05:42:34;;;;;;;4.70;4.50;;;;;;;8.53;100.00;148189.28;5094242;28;20586;-58
2024/01/16 05:45:02;;;;;;;3.97;3.67;;;;;;;8.49;100.00;148179.19;5093847;28;20188;-57
2024/01/16 05:47:30;;;;;;;4.13;3.93;;;;;;;8.73;100.00;148237.25;5093841;28;20220;-59
2024/01/16 05:49:58;;;;;;;3.47;3.37;;;;;;;8.79;100.00;148252.38;5093880;28;20184;-59
2024/01/16 05:52:26;;;;;;;4.43;4.17;;;;;;;8.80;100.00;148254.91;5093629;28;20238;-57
2024/01/16 05:54:57;;;;;;;3.50;3.30;;;;;;;8.87;100.00;148272.63;5093494;28;20245;-58
2024/01/16 05:57:24;;;;;;;4.63;3.50;;;;;;;8.90;100.00;148280.19;5093565;28;20312;-58
2024/01/16 05:59:51;;;;;;;4.17;3.97;;;;;;;8.95;100.00;148292.81;5093594;28;20233;-58
2024/01/16 06:02:18;;;;;;;4.37;4.17;;;;;;;8.93;100.00;148287.75;5093813;28;20531;-58
2024/01/16 06:04:46;;;;;;;3.43;3.33;;;;;;;8.89;100.00;148277.66;5093796;28;20242;-59
2024/01/16 06:07:13;;;;;;;3.63;3.33;;;;;;;8.92;100.00;148285.22;5093380;28;20176;-59
2024/01/16 06:09:41;;;;;;;3.50;3.30;;;;;;;8.77;100.00;148247.34;5093716;28;20191;-57
2024/01/16 06:12:09;;;;;;;3.73;3.53;;;;;;;8.78;100.00;148249.91;5093619;28;20634;-58
2024/01/16 06:14:36;;;;;;;3.77;3.57;;;;;;;8.61;100.00;148208.25;5093641;28;20601;-57
2024/01/16 06:17:05;;;;;;;4.27;4.07;;;;;;;8.71;100.00;148234.72;5093084;28;20228;-58
2024/01/16 06:19:32;;;;;;;3.60;3.40;;;;;;;8.64;100.00;148215.81;5093258;28;20188;-60
2024/01/16 06:21:59;;;;;;;3.67;3.47;;;;;;;8.68;100.00;148227.16;5093108;28;20200;-58
2024/01/16 06:24:27;;;;;;;3.60;3.37;;;;;;;8.77;100.00;148248.63;5093120;28;20239;-60
2024/01/16 06:26:55;;;;;;;4.03;3.77;;;;;;;9.04;100.00;148315.50;5093313;28;20551;-58
2024/01/16 06:29:22;;;;;;;3.97;3.60;;;;;;;9.16;100.00;148347.06;5093274;28;20213;-59
2024/01/16 06:31:49;;;;;;;3.77;3.57;;;;;;;9.33;100.00;148388.78;5093016;28;20188;-57
2024/01/16 06:34:16;;;;;;;4.03;3.83;;;;;;;9.59;100.00;148454.41;5093188;28;20188;-56
2024/01/16 06:36:43;;;;;;;4.23;3.93;;;;;;;9.79;100.00;148502.44;5093304;28;20257;-57
2024/01/16 06:39:13;;;;;;;4.47;4.07;;;;;;;10.27;100.00;148623.75;5093178;28;20206;-56
2024/01/16 06:41:41;;;;;;;4.70;4.50;;;;;;;10.51;100.00;148683.19;5093244;28;20241;-58
2024/01/16 06:44:09;;;;;;;4.43;4.13;;;;;;;10.43;100.00;148664.22;5093582;28;20216;-56
2024/01/16 06:46:36;;;;;;;5.00;4.60;;;;;;;10.77;100.00;148747.66;5093861;28;20191;-65
2024/01/16 06:49:04;;;;;;;3.80;3.60;;;;;;;10.71;100.00;148733.72;5092865;28;20191;-61
2024/01/16 06:51:31;;;;;;;5.13;4.93;;;;;;;10.59;100.00;148703.38;5092640;28;20181;-58
2024/01/16 06:53:58;;;;;;;5.17;4.87;;;;;;;10.66;100.00;148721.06;5092482;28;20188;-57
2024/01/16 06:56:25;;;;;;;9.77;4.67;;;;;;;10.64;100.00;148716.03;5092744;28;20664;-58
2024/01/16 06:58:52;;;;;;;4.83;4.43;;;;;;;10.79;100.00;148752.69;5092402;28;20558;-58
2024/01/16 07:01:21;;;;;;;5.10;4.70;;;;;;;10.40;100.00;148656.59;5092296;28;20200;-58
2024/01/16 07:03:48;;;;;;;4.23;4.03;;;;;;;10.12;100.00;148584.53;5092153;28;20261;-58
2024/01/16 07:06:15;;;;;;;5.00;4.63;;;;;;;9.67;100.00;148473.38;5092269;28;20561;-58
2024/01/16 07:08:42;;;;;;;5.10;4.80;;;;;;;9.62;100.00;148460.75;5092529;28;20256;-59
2024/01/16 07:11:12;;;;;;;4.70;4.50;;;;;;;9.49;100.00;148429.16;5092374;28;20188;-57
2024/01/16 07:13:39;;;;;;;4.67;4.47;;;;;;;9.41;100.00;148407.72;5092280;28;20195;-57
2024/01/16 07:16:07;;;;;;;4.10;3.90;;;;;;;9.22;100.00;148359.69;5092764;28;20191;-57
2024/01/16 07:18:35;;;;;;;4.80;4.60;;;;;;;9.40;100.00;148405.16;5091805;28;20208;-57
2024/01/16 07:21:03;;;;;;;5.17;4.87;;;;;;;9.38;100.00;148400.09;5092365;28;20622;-56
2024/01/16 07:23:30;;;;;;;5.87;5.60;;;;;;;9.21;100.00;148358.44;5091726;28;20188;-57
2024/01/16 07:25:57;;;;;;;8.00;5.80;;;;;;;9.18;100.00;148352.13;5092561;28;20202;-57
2024/01/16 07:28:24;;;;;;;6.00;5.53;;;;;;;9.10;100.00;148330.66;5091794;28;20275;-58
2024/01/16 07:30:54;;;;;;;5.27;5.03;;;;;;;8.92;100.00;148285.22;5092022;28;20188;-57
2024/01/16 07:33:21;;;;;;;5.60;5.30;;;;;;;8.98;100.00;148300.38;5092008;28;20180;-58
2024/01/16 07:35:50;;;;;;;8.60;5.70;;;;;;;8.89;100.00;148277.66;5092034;28;20309;-57
2024/01/16 07:38:17;;;;;;;9.40;7.93;;;;;;;8.74;100.00;148239.81;5091591;28;20207;-57
2024/01/16 07:40:44;;;;;;;10.47;9.17;;;;;;;8.64;100.00;148217.06;5091913;28;20560;-56
2024/01/16 07:43:11;;;;;;;9.30;8.53;;;;;;;8.59;100.00;148204.44;5091561;28;20188;-57
2024/01/16 07:45:38;;;;;;;10.00;9.33;;;;;;;8.36;100.00;148146.38;5091725;28;20685;-58
2024/01/16 07:48:06;;;;;;;11.30;10.27;;;;;;;8.25;100.00;148118.59;5091801;28;20188;-58
2024/01/16 07:50:33;;;;;;;12.20;10.93;;;;;;;8.06;100.00;148070.69;5091848;28;20608;-57
2024/01/16 07:53:01;;;;;;;15.17;12.27;;;;;;;7.78;100.00;148002.53;5091437;28;20184;-57
2024/01/16 07:55:28;;;;;;;14.50;12.43;;;;;;;7.89;100.00;148027.78;5091269;28;20231;-57
2024/01/16 07:57:59;;;;;;;13.63;12.53;;;;;;;7.76;100.00;147997.53;5091683;28;20237;-56
2024/01/16 08:00:27;;;;;;;21.13;14.60;;;;;;;7.67;100.00;147973.56;5091683;28;20259;-57
2024/01/16 08:02:54;;;;;;;17.30;15.40;;;;;;;7.58;100.00;147952.13;5091427;28;20194;-58
2024/01/16 08:05:24;;;;;;;24.07;17.30;;;;;;;7.08;100.00;147826.03;5091735;28;20282;-57
2024/01/16 08:07:51;;;;;;;24.23;18.13;;;;;;;7.46;100.00;147921.84;5091613;28;20192;-57
2024/01/16 08:10:20;;;;;;;21.53;17.57;;;;;;;7.39;100.00;147902.91;5091494;28;20237;-58
2024/01/16 08:12:49;;;;;;;20.97;18.47;;;;;;;7.48;100.00;147925.59;5091727;28;20630;-59
2024/01/16 08:15:16;;;;;;;24.70;18.13;;;;;;;7.24;100.00;147866.38;5091727;28;20266;-58
2024/01/16 08:17:43;;;;;;;25.30;18.47;;;;;;;6.85;100.00;147770.59;5096042;28;20261;-59
2024/01/16 08:20:11;;;;;;;23.23;17.83;;;;;;;7.18;100.00;147852.50;5095612;28;20191;-58
2024/01/16 08:22:39;;;;;;;23.50;18.23;;;;;;;7.17;100.00;147849.97;5095706;28;20188;-57
2024/01/16 08:25:06;;;;;;;29.93;18.63;;;;;;;7.15;100.00;147844.94;5095646;28;20253;-58
2024/01/16 08:27:37;;;;;;;22.60;18.60;;;;;;;7.03;100.00;147813.44;5095182;28;20180;-58
2024/01/16 08:30:05;;;;;;;23.87;18.33;;;;;;;6.87;100.00;147774.38;5095074;28;20188;-60
2024/01/16 08:32:33;;;;;;;31.33;19.43;;;;;;;6.62;100.00;147712.59;5093687;28;20678;-58
2024/01/16 08:35:00;;;;;;;25.93;17.10;;;;;;;6.69;100.00;147730.28;5094963;28;20267;-58
2024/01/16 08:37:27;;;;;;;23.57;16.47;;;;;;;6.84;100.00;147768.06;5095198;28;20212;-57
2024/01/16 08:39:54;;;;;;;20.50;15.07;;;;;;;6.83;100.00;147764.31;5095408;28;20181;-59
2024/01/16 08:42:21;;;;;;;22.10;15.10;;;;;;;7.04;100.00;147815.97;5095285;28;20579;-58
2024/01/16 08:44:49;;;;;;;19.17;14.20;;;;;;;8.48;100.00;148175.44;5094715;28;20238;-57
2024/01/16 08:47:16;;;;;;;16.00;14.07;;;;;;;9.94;100.00;148540.31;5094692;28;20653;-59
2024/01/16 08:49:44;;;;;;;21.10;14.93;;;;;;;9.50;100.00;148431.72;5094735;28;20235;-58
2024/01/16 08:52:11;;;;;;;18.30;13.90;;;;;;;8.79;100.00;148252.38;5095114;28;20191;-58
2024/01/16 08:54:38;;;;;;;16.03;14.33;;;;;;;8.36;100.00;148146.38;5095341;28;20231;-55
2024/01/16 08:57:05;;;;;;;20.13;13.60;;;;;;;8.13;100.00;148089.59;5094825;28;20308;-57
2024/01/16 08:59:32;;;;;;;14.80;13.37;;;;;;;8.09;100.00;148078.22;5095251;28;20188;-58
2024/01/16 09:02:01;;;;;;;14.90;13.60;;;;;;;7.76;100.00;147997.53;5094671;28;20188;-57
2024/01/16 09:04:28;;;;;;;18.73;14.17;;;;;;;7.78;100.00;148002.53;5094388;28;20195;-59
2024/01/16 09:06:55;;;;;;;17.03;13.53;;;;;;;7.70;100.00;147982.38;5094862;28;20697;-57
2024/01/16 09:09:22;;;;;;;15.90;12.07;;;;;;;7.55;100.00;147944.56;5093385;28;20223;-59
2024/01/16 09:11:49;;;;;;;13.97;12.70;;;;;;;7.66;100.00;147972.28;5094646;28;20196;-59
2024/01/16 09:14:16;;;;;;;13.40;12.17;;;;;;;7.83;100.00;148013.91;5094474;28;20195;-60
2024/01/16 09:16:43;;;;;;;19.90;11.47;;;;;;;8.64;100.00;148215.81;5094644;28;20188;-59
2024/01/16 09:19:12;;;;;;;11.60;10.60;;;;;;;10.22;100.00;148611.16;5094698;28;20225;-59
2024/01/16 09:21:39;;;;;;;11.37;10.47;;;;;;;10.94;100.00;148791.91;5094077;28;20218;-59
2024/01/16 09:24:06;;;;;;;11.63;10.47;;;;;;;10.84;100.00;148765.31;5094338;28;20188;-59
2024/01/16 09:26:33;;;;;;;10.97;10.13;;;;;;;10.57;100.00;148697.03;5094274;28;20204;-59
2024/01/16 09:29:00;;;;;;;12.00;10.93;;;;;;;10.44;100.00;148666.72;5093451;28;20611;-59
2024/01/16 09:31:27;;;;;;;10.77;10.10;;;;;;;10.37;100.00;148649.03;5094344;28;20214;-59
2024/01/16 09:33:55;;;;;;;9.67;9.07;;;;;;;11.89;100.00;149028.44;5093959;28;20188;-58
2024/01/16 09:36:23;;;;;;;9.30;8.53;;;;;;;13.38;94.07;149402.00;5093786;28;20264;-58
2024/01/16 09:38:50;;;;;;;8.43;7.60;;;;;;;13.88;84.88;149527.44;5094110;28;20200;-57
2024/01/16 09:41:17;;;;;;;9.07;8.30;;;;;;;14.47;79.79;149674.56;5094170;28;20622;-59
2024/01/16 09:43:47;;;;;;;7.87;7.47;;;;;;;14.67;76.28;149725.28;5093668;28;20184;-57
2024/01/16 09:46:16;;;;;;;7.87;7.47;;;;;;;15.05;74.58;149821.66;5094172;28;20562;-60
2024/01/16 09:48:46;;;;;;;7.93;7.17;;;;;;;15.32;71.97;149888.88;5093897;28;20180;-58
2024/01/16 09:51:14;;;;;;;6.83;6.33;;;;;;;16.08;67.21;150078.06;5093795;28;20181;-58
2024/01/16 09:53:43;;;;;;;6.40;5.90;;;;;;;15.36;67.81;149899.03;5093341;28;20276;-59
2024/01/16 09:56:15;;;;;;;6.00;5.70;;;;;;;15.81;65.87;150012.03;5093184;28;20254;-59
2024/01/16 09:58:43;;;;;;;6.30;5.90;;;;;;;15.61;65.82;149961.28;5093193;28;20242;-59
2024/01/16 10:01:12;;;;;;;5.57;5.07;;;;;;;15.78;64.14;150004.44;5093452;28;20210;-60
2024/01/16 10:03:41;;;;;;;6.17;5.77;;;;;;;15.58;63.58;149953.63;5093689;28;20604;-61
2024/01/16 10:06:09;;;;;;;5.53;5.27;;;;;;;15.39;63.83;149905.41;5093236;28;20184;-61
2024/01/16 10:08:36;;;;;;;5.70;5.40;;;;;;;15.54;63.93;149943.50;5093608;28;20203;-60
2024/01/16 10:11:05;;;;;;;5.17;4.77;;;;;;;15.48;63.95;149929.50;5093751;28;20188;-62
2024/01/16 10:13:34;;;;;;;5.33;4.83;;;;;;;15.57;62.93;149951.13;5093418;28;20184;-59
2024/01/16 10:16:01;;;;;;;5.00;4.43;;;;;;;15.19;62.49;149854.66;5093753;28;20581;-61
2024/01/16 10:18:30;;;;;;;5.87;4.83;;;;;;;15.06;64.16;149822.94;5093655;28;20204;-62
2024/01/16 10:20:58;;;;;;;4.83;4.50;;;;;;;15.99;62.27;150057.75;5093303;28;20249;-58
2024/01/16 10:23:26;;;;;;;7.17;4.93;;;;;;;16.21;59.84;150111.06;5092218;28;20237;-59
2024/01/16 10:26:11;;;;;;;4.33;4.13;;;;;;;16.73;57.73;150243.16;5093362;28;20188;-60
2024/01/16 10:28:39;;;;;;;5.40;5.00;;;;;;;16.63;57.81;150217.78;5093513;28;20184;-60
2024/01/16 10:31:08;;;;;;;5.07;4.77;;;;;;;17.23;56.91;150367.63;5092921;28;20608;-59
2024/01/16 10:33:37;;;;;;;14.47;5.67;;;;;;;17.41;56.45;150413.38;5093363;28;20180;-60
2024/01/16 10:36:12;;;;;;;5.28;4.85;;;;;;;17.99;54.76;150558.34;5092714;28;20180;-59
2024/01/16 10:38:39;;;;;;;8.00;3.90;;;;;;;18.04;52.28;150571.00;5092108;28;20207;-60
2024/01/16 10:41:15;;;;;;;4.13;3.33;;;;;;;17.56;49.96;150451.53;5092898;28;20660;-57
2024/01/16 10:43:44;;;;;;;2.72;2.63;;;;;;;17.53;49.73;150443.88;5092675;28;20188;-59
2024/01/16 10:46:13;;;;;;;3.38;3.00;;;;;;;17.84;48.40;150520.19;5092457;28;20188;-59
2024/01/16 10:48:42;;;;;;;4.30;2.97;;;;;;;18.01;47.51;150564.69;5092701;28;20266;-58
2024/01/16 10:51:12;;;;;;;2.95;2.85;;;;;;;18.04;47.36;150571.00;5092573;28;20195;-61
2024/01/16 10:53:44;;;;;;;2.85;2.75;;;;;;;18.98;45.94;150808.88;5092706;28;20298;-57
2024/01/16 10:56:13;;;;;;;7.43;3.80;;;;;;;18.85;46.21;150775.81;5092345;28;20469;-58
2024/01/16 10:58:42;;;;;;;5.18;3.05;;;;;;;18.89;46.46;150785.97;5092007;28;20204;-57
2024/01/16 11:01:12;;;;;;;7.18;2.53;;;;;;;19.39;45.17;150911.94;5092281;28;20249;-58
2024/01/16 11:03:44;;;;;;;3.55;2.80;;;;;;;17.62;48.18;150465.53;5091784;28;20287;-58
2024/01/16 11:06:13;;;;;;;4.35;3.05;;;;;;;16.45;50.32;150173.28;5091926;28;20184;-58
2024/01/16 11:08:40;;;;;;;3.80;2.90;;;;;;;15.88;51.62;150029.78;5092077;28;20183;-59
2024/01/16 11:11:09;;;;;;;2.47;1.80;;;;;;;16.95;48.25;150296.50;5092182;28;20219;-59
2024/01/16 11:13:37;;;;;;;2.40;2.10;;;;;;;16.36;48.04;150149.13;5092231;28;20605;-60
2024/01/16 11:16:06;;;;;;;2.13;1.90;;;;;;;17.12;48.16;150339.69;5092200;28;20206;-57
2024/01/16 11:18:35;;;;;;;2.60;2.47;;;;;;;17.11;48.60;150337.13;5092081;28;20646;-59
2024/01/16 11:21:06;;;;;;;4.25;2.33;;;;;;;17.70;48.39;150487.13;5091995;28;20628;-62
2024/01/16 11:23:34;;;;;;;3.30;2.35;;;;;;;17.92;48.06;150540.50;5092228;28;20184;-58